Apple Grove, North Carolina
Current Conditions -  °F | °C
As of 3:15 PM on Sunday 25 Jan 2015 (Local Time) from KGEV Reporting Station
Clear Clear  
Wind Chill: 43°   Ceiling: Unl
Heat Index: 46°   Visibility: 10mi
Dew Point: 23°   Wind: 6mph
Humidity: 41%   Direction: 170°S
Pressure: 29.72"   Gusts: NA
Location:  36.524°N, 81.538°W
Report Text: KGEV 252015Z AUTO 17005KT 10SM CLR 08/M05 A2972 RMK AO2 T00761050
Loading
Personal Weather Stations






























Interactive Weather Map New forecast layout! Learn more

10-Day Weather Forecast

Advertisements
Track Severe Weather on mobile